sensor_id;sensor_type;location;lat;lon;timestamp;temperature;humidity
12889;DHT22;56848;49.896;11.424;2023-03-04T05:00:26;-2.90;99.90
12889;DHT22;56848;49.896;11.424;2023-03-04T05:02:51;-2.90;99.90
12889;DHT22;56848;49.896;11.424;2023-03-04T05:05:17;-2.80;99.90
12889;DHT22;56848;49.896;11.424;2023-03-04T05:07:42;-2.80;99.90
12889;DHT22;56848;49.896;11.424;2023-03-04T05:10:09;-2.80;99.90
12889;DHT22;56848;49.896;11.424;2023-03-04T05:12:34;-2.80;99.90
12889;DHT22;56848;49.896;11.424;2023-03-04T05:15:00;-2.70;99.90
12889;DHT22;56848;49.896;11.424;2023-03-04T05:17:26;-2.80;99.90
12889;DHT22;56848;49.896;11.424;2023-03-04T05:19:51;-2.80;99.90
12889;DHT22;56848;49.896;11.424;2023-03-04T05:22:17;-2.90;99.90
12889;DHT22;56848;49.896;11.424;2023-03-04T05:24:43;-2.80;99.90
12889;DHT22;56848;49.896;11.424;2023-03-04T05:27:08;-2.80;99.90
12889;DHT22;56848;49.896;11.424;2023-03-04T05:29:34;-2.70;99.90
12889;DHT22;56848;49.896;11.424;2023-03-04T05:31:59;-2.80;99.90
12889;DHT22;56848;49.896;11.424;2023-03-04T05:34:25;-2.80;99.90
12889;DHT22;56848;49.896;11.424;2023-03-04T05:36:51;-2.80;99.90
12889;DHT22;56848;49.896;11.424;2023-03-04T05:39:16;-2.80;99.90
12889;DHT22;56848;49.896;11.424;2023-03-04T05:41:42;-2.80;99.90
12889;DHT22;56848;49.896;11.424;2023-03-04T05:44:07;-2.80;99.90
12889;DHT22;56848;49.896;11.424;2023-03-04T05:46:33;-2.80;99.90
12889;DHT22;56848;49.896;11.424;2023-03-04T05:48:58;-2.70;99.90
12889;DHT22;56848;49.896;11.424;2023-03-04T05:51:24;-2.70;99.90
12889;DHT22;56848;49.896;11.424;2023-03-04T05:53:49;-2.70;99.90
12889;DHT22;56848;49.896;11.424;2023-03-04T05:56:18;-2.70;99.90
12889;DHT22;56848;49.896;11.424;2023-03-04T05:58:44;-2.60;99.90
12889;DHT22;56848;49.896;11.424;2023-03-04T06:01:12;-2.60;99.90
12889;DHT22;56848;49.896;11.424;2023-03-04T06:03:38;-2.60;99.90
12889;DHT22;56848;49.896;11.424;2023-03-04T06:06:04;-2.60;99.90
12889;DHT22;56848;49.896;11.424;2023-03-04T06:08:29;-2.70;99.90
12889;DHT22;56848;49.896;11.424;2023-03-04T06:10:56;-2.70;99.90
12889;DHT22;56848;49.896;11.424;2023-03-04T06:13:23;-2.60;99.90
12889;DHT22;56848;49.896;11.424;2023-03-04T06:15:53;-2.50;99.90
12889;DHT22;56848;49.896;11.424;2023-03-04T06:18:19;-2.50;99.90
12889;DHT22;56848;49.896;11.424;2023-03-04T06:20:45;-2.40;99.90
12889;DHT22;56848;49.896;11.424;2023-03-04T06:23:10;-2.40;99.90
12889;DHT22;56848;49.896;11.424;2023-03-04T06:25:36;-2.50;99.90
12889;DHT22;56848;49.896;11.424;2023-03-04T06:28:01;-2.60;99.90
12889;DHT22;56848;49.896;11.424;2023-03-04T06:30:27;-2.60;99.90
12889;DHT22;56848;49.896;11.424;2023-03-04T06:32:53;-2.50;99.90
12889;DHT22;56848;49.896;11.424;2023-03-04T06:35:19;-2.50;99.90
12889;DHT22;56848;49.896;11.424;2023-03-04T06:37:44;-2.50;99.90
12889;DHT22;56848;49.896;11.424;2023-03-04T06:40:11;-2.50;99.90
12889;DHT22;56848;49.896;11.424;2023-03-04T06:42:38;-2.50;99.90
12889;DHT22;56848;49.896;11.424;2023-03-04T06:45:05;-2.40;99.90
12889;DHT22;56848;49.896;11.424;2023-03-04T06:47:30;-2.40;99.90
12889;DHT22;56848;49.896;11.424;2023-03-04T06:49:56;-2.40;99.90
12889;DHT22;56848;49.896;11.424;2023-03-04T06:52:22;-2.40;99.90
12889;DHT22;56848;49.896;11.424;2023-03-04T06:54:47;-2.40;99.90
12889;DHT22;56848;49.896;11.424;2023-03-04T06:57:13;-2.30;99.90
12889;DHT22;56848;49.896;11.424;2023-03-04T06:59:39;-2.20;99.90
12889;DHT22;56848;49.896;11.424;2023-03-04T07:02:05;-2.30;99.90
12889;DHT22;56848;49.896;11.424;2023-03-04T07:04:31;-2.20;99.90
12889;DHT22;56848;49.896;11.424;2023-03-04T07:06:57;-2.20;99.90
12889;DHT22;56848;49.896;11.424;2023-03-04T07:09:22;-2.10;99.90
12889;DHT22;56848;49.896;11.424;2023-03-04T07:11:48;-2.00;99.90
12889;DHT22;56848;49.896;11.424;2023-03-04T07:14:13;-2.00;99.90
12889;DHT22;56848;49.896;11.424;2023-03-04T07:16:39;-2.00;99.90
12889;DHT22;56848;49.896;11.424;2023-03-04T07:19:05;-2.00;99.90
12889;DHT22;56848;49.896;11.424;2023-03-04T07:21:30;-1.90;99.90
12889;DHT22;56848;49.896;11.424;2023-03-04T07:23:56;-1.90;99.90
12889;DHT22;56848;49.896;11.424;2023-03-04T07:26:22;-1.90;99.90
12889;DHT22;56848;49.896;11.424;2023-03-04T07:28:47;-1.90;99.90
12889;DHT22;56848;49.896;11.424;2023-03-04T07:31:25;-1.90;99.90
12889;DHT22;56848;49.896;11.424;2023-03-04T07:33:55;-1.80;99.90
12889;DHT22;56848;49.896;11.424;2023-03-04T07:36:21;-1.80;99.90
12889;DHT22;56848;49.896;11.424;2023-03-04T07:38:48;-1.60;99.90
12889;DHT22;56848;49.896;11.424;2023-03-04T07:41:15;-1.60;99.90
12889;DHT22;56848;49.896;11.424;2023-03-04T07:43:41;-1.60;99.90
12889;DHT22;56848;49.896;11.424;2023-03-04T07:46:07;-1.50;99.90
12889;DHT22;56848;49.896;11.424;2023-03-04T07:48:33;-1.40;99.90
12889;DHT22;56848;49.896;11.424;2023-03-04T07:51:14;-1.40;99.90
12889;DHT22;56848;49.896;11.424;2023-03-04T07:53:42;-1.30;99.90
12889;DHT22;56848;49.896;11.424;2023-03-04T07:56:12;-1.20;99.90
12889;DHT22;56848;49.896;11.424;2023-03-04T07:58:37;-1.30;99.90
12889;DHT22;56848;49.896;11.424;2023-03-04T08:01:15;-1.30;99.90
12889;DHT22;56848;49.896;11.424;2023-03-04T08:03:41;-1.30;99.90
12889;DHT22;56848;49.896;11.424;2023-03-04T08:06:07;-1.20;99.90
12889;DHT22;56848;49.896;11.424;2023-03-04T08:08:34;-1.20;99.90
12889;DHT22;56848;49.896;11.424;2023-03-04T08:11:02;-1.10;99.90
12889;DHT22;56848;49.896;11.424;2023-03-04T08:13:28;-1.10;99.90
12889;DHT22;56848;49.896;11.424;2023-03-04T08:15:55;-1.00;99.90
12889;DHT22;56848;49.896;11.424;2023-03-04T08:18:20;-0.80;99.90
12889;DHT22;56848;49.896;11.424;2023-03-04T08:20:46;-0.80;99.90
12889;DHT22;56848;49.896;11.424;2023-03-04T08:23:11;-0.80;99.90
12889;DHT22;56848;49.896;11.424;2023-03-04T08:25:38;-0.90;99.90
12889;DHT22;56848;49.896;11.424;2023-03-04T08:28:04;-0.80;99.90
12889;DHT22;56848;49.896;11.424;2023-03-04T08:30:30;-0.60;99.90
12889;DHT22;56848;49.896;11.424;2023-03-04T08:32:55;-0.50;99.90
12889;DHT22;56848;49.896;11.424;2023-03-04T08:35:21;-0.40;99.90
12889;DHT22;56848;49.896;11.424;2023-03-04T08:37:47;-0.50;99.90
12889;DHT22;56848;49.896;11.424;2023-03-04T08:40:13;-0.50;99.90
12889;DHT22;56848;49.896;11.424;2023-03-04T08:42:39;-0.50;99.90
12889;DHT22;56848;49.896;11.424;2023-03-04T08:45:06;-0.50;99.90
12889;DHT22;56848;49.896;11.424;2023-03-04T08:47:31;-0.30;99.90
12889;DHT22;56848;49.896;11.424;2023-03-04T08:49:57;-0.20;99.90
12889;DHT22;56848;49.896;11.424;2023-03-04T08:52:23;-0.30;99.90
12889;DHT22;56848;49.896;11.424;2023-03-04T08:54:48;-0.30;99.90
12889;DHT22;56848;49.896;11.424;2023-03-04T08:57:14;-0.30;99.90
12889;DHT22;56848;49.896;11.424;2023-03-04T08:59:39;-0.20;99.90
12889;DHT22;56848;49.896;11.424;2023-03-04T09:02:06;-0.10;99.90
12889;DHT22;56848;49.896;11.424;2023-03-04T09:04:31;-0.20;99.90
12889;DHT22;56848;49.896;11.424;2023-03-04T09:06:57;-0.20;99.90
12889;DHT22;56848;49.896;11.424;2023-03-04T09:09:24;-0.10;99.90
12889;DHT22;56848;49.896;11.424;2023-03-04T09:11:49;0.00;99.90
12889;DHT22;56848;49.896;11.424;2023-03-04T09:14:15;0.10;99.90
12889;DHT22;56848;49.896;11.424;2023-03-04T09:16:41;0.10;99.90
12889;DHT22;56848;49.896;11.424;2023-03-04T09:19:06;0.10;99.90
12889;DHT22;56848;49.896;11.424;2023-03-04T09:21:32;0.20;99.90
12889;DHT22;56848;49.896;11.424;2023-03-04T09:23:57;0.20;99.90
12889;DHT22;56848;49.896;11.424;2023-03-04T09:26:25;0.30;99.90
12889;DHT22;56848;49.896;11.424;2023-03-04T09:28:54;0.40;99.90
12889;DHT22;56848;49.896;11.424;2023-03-04T09:31:21;0.40;99.90
12889;DHT22;56848;49.896;11.424;2023-03-04T09:33:47;0.40;99.90
12889;DHT22;56848;49.896;11.424;2023-03-04T09:36:13;0.50;99.90
12889;DHT22;56848;49.896;11.424;2023-03-04T09:38:40;0.50;99.90
12889;DHT22;56848;49.896;11.424;2023-03-04T09:41:08;0.50;99.90
12889;DHT22;56848;49.896;11.424;2023-03-04T09:43:35;0.50;99.90
12889;DHT22;56848;49.896;11.424;2023-03-04T09:46:04;0.60;99.90
12889;DHT22;56848;49.896;11.424;2023-03-04T09:48:39;0.60;99.90
12889;DHT22;56848;49.896;11.424;2023-03-04T09:53:48;0.80;99.90
12889;DHT22;56848;49.896;11.424;2023-03-04T09:56:17;0.70;99.90
12889;DHT22;56848;49.896;11.424;2023-03-04T09:58:57;0.90;99.90
12889;DHT22;56848;49.896;11.424;2023-03-04T10:01:33;1.00;99.90
12889;DHT22;56848;49.896;11.424;2023-03-04T10:04:43;1.00;99.90
12889;DHT22;56848;49.896;11.424;2023-03-04T10:06:48;0.90;99.90
12889;DHT22;56848;49.896;11.424;2023-03-04T10:09:38;0.90;99.90
12889;DHT22;56848;49.896;11.424;2023-03-04T10:12:14;0.90;99.90
12889;DHT22;56848;49.896;11.424;2023-03-04T10:14:49;0.90;99.90
12889;DHT22;56848;49.896;11.424;2023-03-04T10:20:14;1.00;99.90
12889;DHT22;56848;49.896;11.424;2023-03-04T10:22:41;1.00;99.90
12889;DHT22;56848;49.896;11.424;2023-03-04T10:25:18;1.00;99.90
12889;DHT22;56848;49.896;11.424;2023-03-04T10:27:50;1.10;99.90
12889;DHT22;56848;49.896;11.424;2023-03-04T10:33:17;1.00;99.90
12889;DHT22;56848;49.896;11.424;2023-03-04T10:38:36;1.00;99.90
12889;DHT22;56848;49.896;11.424;2023-03-04T10:41:17;1.10;99.90
12889;DHT22;56848;49.896;11.424;2023-03-04T10:43:49;1.20;99.90
12889;DHT22;56848;49.896;11.424;2023-03-04T10:46:24;1.30;99.90
12889;DHT22;56848;49.896;11.424;2023-03-04T10:48:52;1.40;99.90
12889;DHT22;56848;49.896;11.424;2023-03-04T10:51:23;1.40;99.90
12889;DHT22;56848;49.896;11.424;2023-03-04T10:54:07;1.30;99.90
12889;DHT22;56848;49.896;11.424;2023-03-04T10:56:42;1.40;99.90
12889;DHT22;56848;49.896;11.424;2023-03-04T10:59:47;1.40;99.90
12889;DHT22;56848;49.896;11.424;2023-03-04T11:02:36;1.40;99.90
12889;DHT22;56848;49.896;11.424;2023-03-04T11:07:42;1.40;99.90
12889;DHT22;56848;49.896;11.424;2023-03-04T11:10:20;1.50;99.90
12889;DHT22;56848;49.896;11.424;2023-03-04T11:13:06;1.30;99.90
12889;DHT22;56848;49.896;11.424;2023-03-04T11:20:48;1.50;99.90
12889;DHT22;56848;49.896;11.424;2023-03-04T11:23:42;1.60;99.90
12889;DHT22;56848;49.896;11.424;2023-03-04T11:26:22;1.60;99.90
12889;DHT22;56848;49.896;11.424;2023-03-04T11:32:07;1.50;99.90
12889;DHT22;56848;49.896;11.424;2023-03-04T11:37:26;1.50;99.90
12889;DHT22;56848;49.896;11.424;2023-03-04T11:40:17;1.60;99.90
12889;DHT22;56848;49.896;11.424;2023-03-04T11:42:50;1.50;99.90
12889;DHT22;56848;49.896;11.424;2023-03-04T11:48:06;1.60;99.90
12889;DHT22;56848;49.896;11.424;2023-03-04T11:51:02;1.70;99.90
12889;DHT22;56848;49.896;11.424;2023-03-04T11:56:49;1.60;99.90
12889;DHT22;56848;49.896;11.424;2023-03-04T12:02:14;1.70;99.90
12889;DHT22;56848;49.896;11.424;2023-03-04T12:05:31;1.70;99.90
12889;DHT22;56848;49.896;11.424;2023-03-04T12:08:32;1.80;99.90
12889;DHT22;56848;49.896;11.424;2023-03-04T12:30:19;2.00;99.90
12889;DHT22;56848;49.896;11.424;2023-03-04T12:38:13;2.20;99.90
12889;DHT22;56848;49.896;11.424;2023-03-04T12:40:56;2.20;99.90
12889;DHT22;56848;49.896;11.424;2023-03-04T12:43:41;2.20;99.90
12889;DHT22;56848;49.896;11.424;2023-03-04T12:52:00;2.00;99.90
12889;DHT22;56848;49.896;11.424;2023-03-04T12:54:38;2.00;99.90
12889;DHT22;56848;49.896;11.424;2023-03-04T12:57:19;2.00;99.90
12889;DHT22;56848;49.896;11.424;2023-03-04T13:05:18;2.10;99.90
12889;DHT22;56848;49.896;11.424;2023-03-04T13:10:49;2.10;99.90
12889;DHT22;56848;49.896;11.424;2023-03-04T13:13:40;2.00;99.90
12889;DHT22;56848;49.896;11.424;2023-03-04T13:16:28;2.00;99.90
12889;DHT22;56848;49.896;11.424;2023-03-04T13:18:54;2.10;99.90
12889;DHT22;56848;49.896;11.424;2023-03-04T13:21:25;2.20;99.90
12889;DHT22;56848;49.896;11.424;2023-03-04T13:23:52;2.20;99.90
12889;DHT22;56848;49.896;11.424;2023-03-04T13:26:31;2.20;99.90
12889;DHT22;56848;49.896;11.424;2023-03-04T13:37:34;2.20;99.90
12889;DHT22;56848;49.896;11.424;2023-03-04T13:40:22;2.20;99.90
12889;DHT22;56848;49.896;11.424;2023-03-04T13:42:49;2.20;99.90
12889;DHT22;56848;49.896;11.424;2023-03-04T13:45:35;2.20;99.90
12889;DHT22;56848;49.896;11.424;2023-03-04T13:48:04;2.20;99.90
12889;DHT22;56848;49.896;11.424;2023-03-04T13:50:43;2.20;99.90
12889;DHT22;56848;49.896;11.424;2023-03-04T13:53:42;2.20;99.90
12889;DHT22;56848;49.896;11.424;2023-03-04T13:56:25;2.20;99.90
12889;DHT22;56848;49.896;11.424;2023-03-04T13:59:19;2.20;99.90
12889;DHT22;56848;49.896;11.424;2023-03-04T14:04:21;2.20;99.90
12889;DHT22;56848;49.896;11.424;2023-03-04T14:06:49;2.10;99.90
12889;DHT22;56848;49.896;11.424;2023-03-04T14:09:19;2.20;99.90
12889;DHT22;56848;49.896;11.424;2023-03-04T14:11:47;2.20;99.90
12889;DHT22;56848;49.896;11.424;2023-03-04T14:14:17;2.20;99.90
12889;DHT22;56848;49.896;11.424;2023-03-04T14:16:56;2.30;99.90
12889;DHT22;56848;49.896;11.424;2023-03-04T14:19:43;2.30;99.90
12889;DHT22;56848;49.896;11.424;2023-03-04T14:27:44;2.20;99.90
12889;DHT22;56848;49.896;11.424;2023-03-04T14:30:24;2.20;99.90
12889;DHT22;56848;49.896;11.424;2023-03-04T14:32:56;2.20;99.90
12889;DHT22;56848;49.896;11.424;2023-03-04T14:35:27;2.20;99.90
12889;DHT22;56848;49.896;11.424;2023-03-04T14:38:00;2.20;99.90
12889;DHT22;56848;49.896;11.424;2023-03-04T14:40:30;2.20;99.90
12889;DHT22;56848;49.896;11.424;2023-03-04T14:43:03;2.10;99.90
12889;DHT22;56848;49.896;11.424;2023-03-04T14:45:29;2.10;99.90
12889;DHT22;56848;49.896;11.424;2023-03-04T14:48:00;2.20;99.90
12889;DHT22;56848;49.896;11.424;2023-03-04T14:50:29;2.20;99.90
12889;DHT22;56848;49.896;11.424;2023-03-04T14:55:32;2.20;99.90
12889;DHT22;56848;49.896;11.424;2023-03-04T14:58:17;2.20;99.90
12889;DHT22;56848;49.896;11.424;2023-03-04T15:00:44;2.20;99.90
12889;DHT22;56848;49.896;11.424;2023-03-04T15:03:22;2.20;99.90
12889;DHT22;56848;49.896;11.424;2023-03-04T15:05:49;2.20;99.90
12889;DHT22;56848;49.896;11.424;2023-03-04T15:08:46;2.20;99.90
12889;DHT22;56848;49.896;11.424;2023-03-04T15:11:22;2.10;99.90
12889;DHT22;56848;49.896;11.424;2023-03-04T15:13:51;2.10;99.90
12889;DHT22;56848;49.896;11.424;2023-03-04T15:16:22;2.10;99.90
12889;DHT22;56848;49.896;11.424;2023-03-04T15:18:57;2.10;99.90
12889;DHT22;56848;49.896;11.424;2023-03-04T15:21:36;2.00;99.90
12889;DHT22;56848;49.896;11.424;2023-03-04T15:24:04;2.00;99.90
12889;DHT22;56848;49.896;11.424;2023-03-04T15:26:37;2.00;99.90
12889;DHT22;56848;49.896;11.424;2023-03-04T15:29:12;2.00;99.90
12889;DHT22;56848;49.896;11.424;2023-03-04T15:31:38;1.90;99.90
12889;DHT22;56848;49.896;11.424;2023-03-04T15:34:14;1.90;99.90
12889;DHT22;56848;49.896;11.424;2023-03-04T15:36:41;1.90;99.90
12889;DHT22;56848;49.896;11.424;2023-03-04T15:39:11;1.90;99.90
12889;DHT22;56848;49.896;11.424;2023-03-04T15:41:37;1.90;99.90
12889;DHT22;56848;49.896;11.424;2023-03-04T15:44:03;1.90;99.90
12889;DHT22;56848;49.896;11.424;2023-03-04T15:46:29;1.80;99.90
12889;DHT22;56848;49.896;11.424;2023-03-04T15:48:55;1.90;99.90
12889;DHT22;56848;49.896;11.424;2023-03-04T15:51:21;1.90;99.90
12889;DHT22;56848;49.896;11.424;2023-03-04T15:53:52;1.90;99.90
12889;DHT22;56848;49.896;11.424;2023-03-04T15:56:23;1.90;99.90
12889;DHT22;56848;49.896;11.424;2023-03-04T15:58:54;1.90;99.90
12889;DHT22;56848;49.896;11.424;2023-03-04T16:01:20;1.80;99.90
12889;DHT22;56848;49.896;11.424;2023-03-04T16:03:46;1.70;99.90
12889;DHT22;56848;49.896;11.424;2023-03-04T16:06:13;1.70;99.90
12889;DHT22;56848;49.896;11.424;2023-03-04T16:08:40;1.70;99.90
12889;DHT22;56848;49.896;11.424;2023-03-04T16:11:08;1.70;99.90
12889;DHT22;56848;49.896;11.424;2023-03-04T16:13:34;1.70;99.90
12889;DHT22;56848;49.896;11.424;2023-03-04T16:16:00;1.70;99.90
12889;DHT22;56848;49.896;11.424;2023-03-04T16:18:25;1.70;99.90
12889;DHT22;56848;49.896;11.424;2023-03-04T16:20:51;1.70;99.90
12889;DHT22;56848;49.896;11.424;2023-03-04T16:23:22;1.70;99.90
12889;DHT22;56848;49.896;11.424;2023-03-04T16:25:52;1.70;99.90
12889;DHT22;56848;49.896;11.424;2023-03-04T16:28:18;1.60;99.90
12889;DHT22;56848;49.896;11.424;2023-03-04T16:30:45;1.60;99.90
12889;DHT22;56848;49.896;11.424;2023-03-04T16:33:11;1.60;99.90
12889;DHT22;56848;49.896;11.424;2023-03-04T16:35:37;1.60;99.90
12889;DHT22;56848;49.896;11.424;2023-03-04T16:38:05;1.60;99.90
12889;DHT22;56848;49.896;11.424;2023-03-04T16:40:36;1.50;99.90
12889;DHT22;56848;49.896;11.424;2023-03-04T16:43:03;1.60;99.90
12889;DHT22;56848;49.896;11.424;2023-03-04T16:45:28;1.60;99.90
12889;DHT22;56848;49.896;11.424;2023-03-04T16:47:55;1.60;99.90
12889;DHT22;56848;49.896;11.424;2023-03-04T16:50:23;1.60;99.90
12889;DHT22;56848;49.896;11.424;2023-03-04T16:52:52;1.50;99.90
12889;DHT22;56848;49.896;11.424;2023-03-04T16:55:23;1.50;99.90
12889;DHT22;56848;49.896;11.424;2023-03-04T16:57:49;1.50;99.90
12889;DHT22;56848;49.896;11.424;2023-03-04T17:00:16;1.50;99.90
12889;DHT22;56848;49.896;11.424;2023-03-04T17:02:43;1.50;99.90
12889;DHT22;56848;49.896;11.424;2023-03-04T17:05:16;1.40;99.90
12889;DHT22;56848;49.896;11.424;2023-03-04T17:07:42;1.40;99.90
12889;DHT22;56848;49.896;11.424;2023-03-04T17:10:08;1.50;99.90
12889;DHT22;56848;49.896;11.424;2023-03-04T17:12:34;1.40;99.90
12889;DHT22;56848;49.896;11.424;2023-03-04T17:15:00;1.40;99.90
12889;DHT22;56848;49.896;11.424;2023-03-04T17:17:29;1.40;99.90
12889;DHT22;56848;49.896;11.424;2023-03-04T17:19:54;1.40;99.90
12889;DHT22;56848;49.896;11.424;2023-03-04T17:22:20;1.30;99.90
12889;DHT22;56848;49.896;11.424;2023-03-04T17:24:46;1.30;99.90
12889;DHT22;56848;49.896;11.424;2023-03-04T17:27:12;1.30;99.90
12889;DHT22;56848;49.896;11.424;2023-03-04T17:29:38;1.30;99.90
12889;DHT22;56848;49.896;11.424;2023-03-04T17:32:03;1.30;99.90
12889;DHT22;56848;49.896;11.424;2023-03-04T17:34:29;1.30;99.90
12889;DHT22;56848;49.896;11.424;2023-03-04T17:36:55;1.30;99.90
12889;DHT22;56848;49.896;11.424;2023-03-04T17:39:20;1.30;99.90
12889;DHT22;56848;49.896;11.424;2023-03-04T17:41:49;1.30;99.90
12889;DHT22;56848;49.896;11.424;2023-03-04T17:44:15;1.30;99.90
12889;DHT22;56848;49.896;11.424;2023-03-04T17:46:41;1.30;99.90
12889;DHT22;56848;49.896;11.424;2023-03-04T17:49:08;1.30;99.90
12889;DHT22;56848;49.896;11.424;2023-03-04T17:51:36;1.30;99.90
12889;DHT22;56848;49.896;11.424;2023-03-04T17:54:03;1.30;99.90
12889;DHT22;56848;49.896;11.424;2023-03-04T17:56:31;1.30;99.90
12889;DHT22;56848;49.896;11.424;2023-03-04T17:58:58;1.20;99.90
12889;DHT22;56848;49.896;11.424;2023-03-04T18:01:25;1.20;99.90
12889;DHT22;56848;49.896;11.424;2023-03-04T18:03:51;1.10;99.90
12889;DHT22;56848;49.896;11.424;2023-03-04T18:06:17;1.10;99.90
12889;DHT22;56848;49.896;11.424;2023-03-04T18:08:43;1.10;99.90
12889;DHT22;56848;49.896;11.424;2023-03-04T18:11:09;1.10;99.90
12889;DHT22;56848;49.896;11.424;2023-03-04T18:13:39;1.10;99.90
12889;DHT22;56848;49.896;11.424;2023-03-04T18:16:05;1.10;99.90
12889;DHT22;56848;49.896;11.424;2023-03-04T18:18:34;1.10;99.90
12889;DHT22;56848;49.896;11.424;2023-03-04T18:21:00;1.10;99.90
12889;DHT22;56848;49.896;11.424;2023-03-04T18:23:26;1.10;99.90
12889;DHT22;56848;49.896;11.424;2023-03-04T18:25:52;1.10;99.90
12889;DHT22;56848;49.896;11.424;2023-03-04T18:28:18;1.10;99.90
12889;DHT22;56848;49.896;11.424;2023-03-04T18:30:43;1.10;99.90
12889;DHT22;56848;49.896;11.424;2023-03-04T18:33:09;1.10;99.90
12889;DHT22;56848;49.896;11.424;2023-03-04T18:35:34;1.00;99.90
12889;DHT22;56848;49.896;11.424;2023-03-04T18:38:00;1.00;99.90
12889;DHT22;56848;49.896;11.424;2023-03-04T18:40:26;1.10;99.90
12889;DHT22;56848;49.896;11.424;2023-03-04T18:42:54;1.10;99.90
12889;DHT22;56848;49.896;11.424;2023-03-04T18:45:20;1.10;99.90
12889;DHT22;56848;49.896;11.424;2023-03-04T18:47:50;1.00;99.90
12889;DHT22;56848;49.896;11.424;2023-03-04T18:50:18;1.00;99.90
12889;DHT22;56848;49.896;11.424;2023-03-04T18:52:45;1.00;99.90
12889;DHT22;56848;49.896;11.424;2023-03-04T18:55:11;1.10;99.90
12889;DHT22;56848;49.896;11.424;2023-03-04T18:57:42;1.10;99.90
12889;DHT22;56848;49.896;11.424;2023-03-04T19:00:10;1.10;99.90
12889;DHT22;56848;49.896;11.424;2023-03-04T19:02:40;1.20;99.90
12889;DHT22;56848;49.896;11.424;2023-03-04T19:05:13;1.20;99.90
12889;DHT22;56848;49.896;11.424;2023-03-04T19:07:40;1.10;99.90
12889;DHT22;56848;49.896;11.424;2023-03-04T19:10:06;1.20;99.90
12889;DHT22;56848;49.896;11.424;2023-03-04T19:12:32;1.10;99.90
12889;DHT22;56848;49.896;11.424;2023-03-04T19:14:58;1.10;99.90
12889;DHT22;56848;49.896;11.424;2023-03-04T19:17:24;1.10;99.90
12889;DHT22;56848;49.896;11.424;2023-03-04T19:19:52;1.20;99.90
12889;DHT22;56848;49.896;11.424;2023-03-04T19:22:18;1.20;99.90
12889;DHT22;56848;49.896;11.424;2023-03-04T19:24:44;1.20;99.90
12889;DHT22;56848;49.896;11.424;2023-03-04T19:27:09;1.20;99.90
12889;DHT22;56848;49.896;11.424;2023-03-04T19:29:35;1.10;99.90
12889;DHT22;56848;49.896;11.424;2023-03-04T19:32:00;1.10;99.90
12889;DHT22;56848;49.896;11.424;2023-03-04T19:34:26;1.10;99.90
12889;DHT22;56848;49.896;11.424;2023-03-04T19:36:52;1.10;99.90
12889;DHT22;56848;49.896;11.424;2023-03-04T19:39:17;1.10;99.90
12889;DHT22;56848;49.896;11.424;2023-03-04T19:41:43;1.10;99.90
12889;DHT22;56848;49.896;11.424;2023-03-04T19:44:09;1.10;99.90
12889;DHT22;56848;49.896;11.424;2023-03-04T19:46:35;1.20;99.90
12889;DHT22;56848;49.896;11.424;2023-03-04T19:49:01;1.10;99.90
12889;DHT22;56848;49.896;11.424;2023-03-04T19:51:27;1.10;99.90
12889;DHT22;56848;49.896;11.424;2023-03-04T19:53:54;1.20;99.90
12889;DHT22;56848;49.896;11.424;2023-03-04T19:56:20;1.20;99.90
12889;DHT22;56848;49.896;11.424;2023-03-04T19:58:47;1.20;99.90
12889;DHT22;56848;49.896;11.424;2023-03-04T20:01:27;1.20;99.90
12889;DHT22;56848;49.896;11.424;2023-03-04T20:04:02;1.20;99.90
12889;DHT22;56848;49.896;11.424;2023-03-04T20:06:28;1.20;99.90
12889;DHT22;56848;49.896;11.424;2023-03-04T20:08:59;1.20;99.90
12889;DHT22;56848;49.896;11.424;2023-03-04T20:11:26;1.30;99.90
12889;DHT22;56848;49.896;11.424;2023-03-04T20:13:52;1.30;99.90
12889;DHT22;56848;49.896;11.424;2023-03-04T20:16:18;1.20;99.90
12889;DHT22;56848;49.896;11.424;2023-03-04T20:18:44;1.20;99.90
12889;DHT22;56848;49.896;11.424;2023-03-04T20:21:10;1.20;99.90
12889;DHT22;56848;49.896;11.424;2023-03-04T20:23:35;1.10;99.90
12889;DHT22;56848;49.896;11.424;2023-03-04T20:26:01;1.10;99.90
12889;DHT22;56848;49.896;11.424;2023-03-04T20:28:27;1.10;99.90
12889;DHT22;56848;49.896;11.424;2023-03-04T20:31:07;1.00;99.90
12889;DHT22;56848;49.896;11.424;2023-03-04T20:33:33;1.00;99.90
12889;DHT22;56848;49.896;11.424;2023-03-04T20:35:58;1.00;99.90
12889;DHT22;56848;49.896;11.424;2023-03-04T20:38:24;1.00;99.90
12889;DHT22;56848;49.896;11.424;2023-03-04T20:40:49;1.00;99.90
12889;DHT22;56848;49.896;11.424;2023-03-04T20:43:15;1.10;99.90
12889;DHT22;56848;49.896;11.424;2023-03-04T20:45:40;1.00;99.90
12889;DHT22;56848;49.896;11.424;2023-03-04T20:48:06;1.00;99.90
12889;DHT22;56848;49.896;11.424;2023-03-04T20:50:31;1.10;99.90
12889;DHT22;56848;49.896;11.424;2023-03-04T20:52:57;1.10;99.90
12889;DHT22;56848;49.896;11.424;2023-03-04T20:55:22;1.10;99.90
12889;DHT22;56848;49.896;11.424;2023-03-04T20:57:48;1.10;99.90
12889;DHT22;56848;49.896;11.424;2023-03-04T21:00:14;1.10;99.90
12889;DHT22;56848;49.896;11.424;2023-03-04T21:02:40;1.10;99.90
12889;DHT22;56848;49.896;11.424;2023-03-04T21:05:06;1.10;99.90
12889;DHT22;56848;49.896;11.424;2023-03-04T21:07:31;1.10;99.90
12889;DHT22;56848;49.896;11.424;2023-03-04T21:09:57;1.10;99.90
12889;DHT22;56848;49.896;11.424;2023-03-04T21:12:23;1.10;99.90
12889;DHT22;56848;49.896;11.424;2023-03-04T21:14:48;1.10;99.90
12889;DHT22;56848;49.896;11.424;2023-03-04T21:17:14;1.10;99.90
12889;DHT22;56848;49.896;11.424;2023-03-04T21:19:41;1.10;99.90
12889;DHT22;56848;49.896;11.424;2023-03-04T21:22:13;1.10;99.90
12889;DHT22;56848;49.896;11.424;2023-03-04T21:24:40;1.10;99.90
12889;DHT22;56848;49.896;11.424;2023-03-04T21:27:07;1.10;99.90
12889;DHT22;56848;49.896;11.424;2023-03-04T21:29:33;1.10;99.90
12889;DHT22;56848;49.896;11.424;2023-03-04T21:32:03;1.10;99.90
12889;DHT22;56848;49.896;11.424;2023-03-04T21:34:36;1.10;99.90
12889;DHT22;56848;49.896;11.424;2023-03-04T21:37:03;1.20;99.90
12889;DHT22;56848;49.896;11.424;2023-03-04T21:39:30;1.20;99.90
12889;DHT22;56848;49.896;11.424;2023-03-04T21:41:57;1.20;99.90
12889;DHT22;56848;49.896;11.424;2023-03-04T21:44:23;1.20;99.90
12889;DHT22;56848;49.896;11.424;2023-03-04T21:46:49;1.20;99.90
12889;DHT22;56848;49.896;11.424;2023-03-04T21:49:14;1.20;99.90
12889;DHT22;56848;49.896;11.424;2023-03-04T21:51:41;1.20;99.90
12889;DHT22;56848;49.896;11.424;2023-03-04T21:54:08;1.10;99.90
12889;DHT22;56848;49.896;11.424;2023-03-04T21:56:35;1.10;99.90
12889;DHT22;56848;49.896;11.424;2023-03-04T21:59:01;1.10;99.90
12889;DHT22;56848;49.896;11.424;2023-03-04T22:01:27;1.10;99.90
